Ticaboo, Utah
Current Conditions -  °F | °C
As of 6:15 PM on Wednesday 22 Oct 2014 (Local Time) from KBDG Reporting Station
Clear Clear  
Wind Chill: 65°   Ceiling: Unl
Heat Index: 65°   Visibility: 10mi
Dew Point: 30°   Wind: 9mph
Humidity: 26%   Direction: 230°SW
Pressure: 30.23"   Gusts: NA
Location:  37.6208°N, 109.479°W
Report Text: KBDG 230015Z AUTO 23008KT 10SM CLR 19/M01 A3023 RMK AO1 T01861012
Loading
Personal Weather Stations






























Interactive Weather Map
Tropical Storm Tracking
New forecast layout! Learn more

10-Day Weather Forecast

Advertisements
Track Severe Weather on mobile